Terminal Aerodrome Forecast
Issued by NWS

Home | Current Version | Previous Version | Text Only | Print | Product List | Glossary On
Versions: 1 2 3 4 5 6 7 8 9 10 11 12 13 14 15 16 17 18 19 20 21 22 23 24
000
FTUS43 KLOT 200528
TAFGYY
TAF
KGYY 200528Z 2006/2106 20012G18KT 6SM -RA VCTS SCT015 OVC035CB
      TEMPO 2006/2010 2SM TSRA BR SCT009 OVC015CB
     FM201000 22012KT 3SM -RA BR VCTS SCT009 OVC015CB
      TEMPO 2010/2013 1SM TSRA BR SCT005 OVC009CB
     FM201300 21014G21KT 1 1/2SM -SHRA BR OVC005 WS020/22055KT
     FM201700 21017G25KT 3SM RA BR BKN005 OVC010 WS020/22055KT
      TEMPO 2018/2022 2SM TSRA BR OVC005CB
     FM202200 27011KT 2SM -SHRA BR OVC004
     FM210200 31012KT 6SM -SHRA BR OVC008=

USA.gov is the U.S. government's official web portal to all federal, state and local government web resources and services.